sensor_id;sensor_type;location;lat;lon;timestamp;P1;durP1;ratioP1;P2;durP2;ratioP2
19278;SDS011;9773;47.062;15.446;2023-04-25T00:01:48;2.80;;;2.60;;
19278;SDS011;9773;47.062;15.446;2023-04-25T00:04:13;4.23;;;3.30;;
19278;SDS011;9773;47.062;15.446;2023-04-25T00:06:39;3.20;;;2.90;;
19278;SDS011;9773;47.062;15.446;2023-04-25T00:09:05;2.50;;;2.40;;
19278;SDS011;9773;47.062;15.446;2023-04-25T00:11:36;2.80;;;2.60;;
19278;SDS011;9773;47.062;15.446;2023-04-25T00:14:03;3.17;;;2.87;;
19278;SDS011;9773;47.062;15.446;2023-04-25T00:16:29;2.90;;;2.70;;
19278;SDS011;9773;47.062;15.446;2023-04-25T00:18:58;3.20;;;3.00;;
19278;SDS011;9773;47.062;15.446;2023-04-25T00:21:24;3.30;;;3.10;;
19278;SDS011;9773;47.062;15.446;2023-04-25T00:23:52;3.67;;;3.00;;
19278;SDS011;9773;47.062;15.446;2023-04-25T00:26:18;3.13;;;2.93;;
19278;SDS011;9773;47.062;15.446;2023-04-25T00:28:43;3.47;;;3.27;;
19278;SDS011;9773;47.062;15.446;2023-04-25T00:31:10;3.30;;;3.10;;
19278;SDS011;9773;47.062;15.446;2023-04-25T00:33:35;4.33;;;3.37;;
19278;SDS011;9773;47.062;15.446;2023-04-25T00:36:01;3.33;;;3.13;;
19278;SDS011;9773;47.062;15.446;2023-04-25T00:38:27;4.10;;;3.80;;
19278;SDS011;9773;47.062;15.446;2023-04-25T00:40:53;3.93;;;3.63;;
19278;SDS011;9773;47.062;15.446;2023-04-25T00:43:20;3.30;;;3.10;;
19278;SDS011;9773;47.062;15.446;2023-04-25T00:45:46;3.90;;;3.60;;
19278;SDS011;9773;47.062;15.446;2023-04-25T00:48:13;4.17;;;3.50;;
19278;SDS011;9773;47.062;15.446;2023-04-25T00:50:39;3.60;;;3.37;;
19278;SDS011;9773;47.062;15.446;2023-04-25T00:53:06;3.67;;;3.47;;
19278;SDS011;9773;47.062;15.446;2023-04-25T00:55:32;3.43;;;3.23;;
19278;SDS011;9773;47.062;15.446;2023-04-25T00:57:59;3.20;;;3.00;;
19278;SDS011;9773;47.062;15.446;2023-04-25T01:00:26;4.47;;;3.40;;
19278;SDS011;9773;47.062;15.446;2023-04-25T01:02:51;3.40;;;3.20;;
19278;SDS011;9773;47.062;15.446;2023-04-25T01:05:17;3.20;;;3.00;;
19278;SDS011;9773;47.062;15.446;2023-04-25T01:07:44;3.70;;;3.40;;
19278;SDS011;9773;47.062;15.446;2023-04-25T01:10:10;3.43;;;3.13;;
19278;SDS011;9773;47.062;15.446;2023-04-25T01:12:36;4.27;;;3.23;;
19278;SDS011;9773;47.062;15.446;2023-04-25T01:15:02;4.00;;;3.07;;
19278;SDS011;9773;47.062;15.446;2023-04-25T01:17:28;2.97;;;2.80;;
19278;SDS011;9773;47.062;15.446;2023-04-25T01:19:54;3.27;;;3.07;;
19278;SDS011;9773;47.062;15.446;2023-04-25T01:22:20;3.40;;;3.20;;
19278;SDS011;9773;47.062;15.446;2023-04-25T01:24:46;3.60;;;3.10;;
19278;SDS011;9773;47.062;15.446;2023-04-25T01:27:12;3.37;;;3.17;;
19278;SDS011;9773;47.062;15.446;2023-04-25T01:29:38;3.03;;;2.93;;
19278;SDS011;9773;47.062;15.446;2023-04-25T01:32:04;3.77;;;3.40;;
19278;SDS011;9773;47.062;15.446;2023-04-25T01:34:30;4.07;;;3.43;;
19278;SDS011;9773;47.062;15.446;2023-04-25T01:36:56;3.60;;;3.30;;
19278;SDS011;9773;47.062;15.446;2023-04-25T01:39:24;3.37;;;3.07;;
19278;SDS011;9773;47.062;15.446;2023-04-25T01:41:50;4.00;;;3.23;;
19278;SDS011;9773;47.062;15.446;2023-04-25T01:44:16;3.30;;;3.07;;
19278;SDS011;9773;47.062;15.446;2023-04-25T01:46:42;3.43;;;3.20;;
19278;SDS011;9773;47.062;15.446;2023-04-25T01:49:08;3.17;;;2.87;;
19278;SDS011;9773;47.062;15.446;2023-04-25T01:51:33;3.40;;;3.10;;
19278;SDS011;9773;47.062;15.446;2023-04-25T01:54:00;3.70;;;3.33;;
19278;SDS011;9773;47.062;15.446;2023-04-25T01:56:29;3.97;;;3.37;;
19278;SDS011;9773;47.062;15.446;2023-04-25T01:59:01;3.00;;;2.80;;
19278;SDS011;9773;47.062;15.446;2023-04-25T02:01:28;3.20;;;3.00;;
19278;SDS011;9773;47.062;15.446;2023-04-25T02:03:54;3.10;;;2.90;;
19278;SDS011;9773;47.062;15.446;2023-04-25T02:06:19;5.67;;;3.27;;
19278;SDS011;9773;47.062;15.446;2023-04-25T02:08:45;3.80;;;3.20;;
19278;SDS011;9773;47.062;15.446;2023-04-25T02:11:11;3.63;;;3.33;;
19278;SDS011;9773;47.062;15.446;2023-04-25T02:13:37;3.17;;;2.70;;
19278;SDS011;9773;47.062;15.446;2023-04-25T02:16:02;3.00;;;2.80;;
19278;SDS011;9773;47.062;15.446;2023-04-25T02:18:28;2.90;;;2.80;;
19278;SDS011;9773;47.062;15.446;2023-04-25T02:20:54;2.90;;;2.70;;
19278;SDS011;9773;47.062;15.446;2023-04-25T02:23:20;3.00;;;2.80;;
19278;SDS011;9773;47.062;15.446;2023-04-25T02:25:46;2.87;;;2.77;;
19278;SDS011;9773;47.062;15.446;2023-04-25T02:28:11;2.70;;;2.60;;
19278;SDS011;9773;47.062;15.446;2023-04-25T02:30:37;3.23;;;3.00;;
19278;SDS011;9773;47.062;15.446;2023-04-25T02:33:03;4.50;;;2.90;;
19278;SDS011;9773;47.062;15.446;2023-04-25T02:35:28;3.03;;;2.43;;
19278;SDS011;9773;47.062;15.446;2023-04-25T02:37:54;5.60;;;2.80;;
19278;SDS011;9773;47.062;15.446;2023-04-25T02:40:20;2.53;;;2.33;;
19278;SDS011;9773;47.062;15.446;2023-04-25T02:42:46;2.70;;;2.40;;
19278;SDS011;9773;47.062;15.446;2023-04-25T02:45:11;2.80;;;2.60;;
19278;SDS011;9773;47.062;15.446;2023-04-25T02:47:37;2.93;;;2.10;;
19278;SDS011;9773;47.062;15.446;2023-04-25T02:50:03;2.40;;;2.20;;
19278;SDS011;9773;47.062;15.446;2023-04-25T02:52:29;2.40;;;2.30;;
19278;SDS011;9773;47.062;15.446;2023-04-25T02:54:55;3.23;;;2.07;;
19278;SDS011;9773;47.062;15.446;2023-04-25T02:57:21;2.40;;;2.20;;
19278;SDS011;9773;47.062;15.446;2023-04-25T02:59:47;2.10;;;1.93;;
19278;SDS011;9773;47.062;15.446;2023-04-25T03:02:12;2.40;;;2.10;;
19278;SDS011;9773;47.062;15.446;2023-04-25T03:04:38;2.30;;;2.10;;
19278;SDS011;9773;47.062;15.446;2023-04-25T03:07:04;2.53;;;2.33;;
19278;SDS011;9773;47.062;15.446;2023-04-25T03:09:30;2.37;;;2.27;;
19278;SDS011;9773;47.062;15.446;2023-04-25T03:11:56;2.40;;;2.20;;
19278;SDS011;9773;47.062;15.446;2023-04-25T03:14:22;2.20;;;2.10;;
19278;SDS011;9773;47.062;15.446;2023-04-25T03:16:47;2.63;;;2.50;;
19278;SDS011;9773;47.062;15.446;2023-04-25T03:19:13;3.77;;;3.47;;
19278;SDS011;9773;47.062;15.446;2023-04-25T03:21:41;7.23;;;4.80;;
19278;SDS011;9773;47.062;15.446;2023-04-25T03:24:06;9.17;;;6.03;;
19278;SDS011;9773;47.062;15.446;2023-04-25T03:26:32;9.43;;;6.10;;
19278;SDS011;9773;47.062;15.446;2023-04-25T03:28:58;7.57;;;6.30;;
19278;SDS011;9773;47.062;15.446;2023-04-25T03:31:23;10.47;;;6.43;;
19278;SDS011;9773;47.062;15.446;2023-04-25T03:33:49;7.50;;;6.03;;
19278;SDS011;9773;47.062;15.446;2023-04-25T03:36:15;9.40;;;6.60;;
19278;SDS011;9773;47.062;15.446;2023-04-25T03:38:41;8.27;;;6.77;;
19278;SDS011;9773;47.062;15.446;2023-04-25T03:41:07;7.53;;;6.60;;
19278;SDS011;9773;47.062;15.446;2023-04-25T03:43:32;9.37;;;6.73;;
19278;SDS011;9773;47.062;15.446;2023-04-25T03:45:58;9.30;;;6.20;;
19278;SDS011;9773;47.062;15.446;2023-04-25T03:48:25;6.50;;;5.90;;
19278;SDS011;9773;47.062;15.446;2023-04-25T03:50:52;6.67;;;5.70;;
19278;SDS011;9773;47.062;15.446;2023-04-25T03:53:18;8.43;;;6.27;;
19278;SDS011;9773;47.062;15.446;2023-04-25T03:55:44;6.80;;;6.13;;
19278;SDS011;9773;47.062;15.446;2023-04-25T03:58:10;6.10;;;5.50;;
19278;SDS011;9773;47.062;15.446;2023-04-25T04:00:36;3.00;;;2.80;;
19278;SDS011;9773;47.062;15.446;2023-04-25T04:03:02;2.90;;;2.57;;
19278;SDS011;9773;47.062;15.446;2023-04-25T04:05:27;3.30;;;2.77;;
19278;SDS011;9773;47.062;15.446;2023-04-25T04:07:54;3.07;;;2.60;;
19278;SDS011;9773;47.062;15.446;2023-04-25T04:10:20;3.07;;;2.80;;
19278;SDS011;9773;47.062;15.446;2023-04-25T04:12:46;3.07;;;2.87;;
19278;SDS011;9773;47.062;15.446;2023-04-25T04:15:12;3.37;;;3.03;;
19278;SDS011;9773;47.062;15.446;2023-04-25T04:17:37;4.33;;;3.83;;
19278;SDS011;9773;47.062;15.446;2023-04-25T04:20:03;6.43;;;3.60;;
19278;SDS011;9773;47.062;15.446;2023-04-25T04:22:31;3.17;;;2.97;;
19278;SDS011;9773;47.062;15.446;2023-04-25T04:24:57;3.70;;;3.40;;
19278;SDS011;9773;47.062;15.446;2023-04-25T04:27:22;4.00;;;3.60;;
19278;SDS011;9773;47.062;15.446;2023-04-25T04:29:48;5.23;;;3.80;;
19278;SDS011;9773;47.062;15.446;2023-04-25T04:32:15;4.63;;;4.20;;
19278;SDS011;9773;47.062;15.446;2023-04-25T04:34:42;4.10;;;3.70;;
19278;SDS011;9773;47.062;15.446;2023-04-25T04:37:08;5.30;;;3.90;;
19278;SDS011;9773;47.062;15.446;2023-04-25T04:39:35;5.03;;;4.00;;
19278;SDS011;9773;47.062;15.446;2023-04-25T04:42:01;4.43;;;4.00;;
19278;SDS011;9773;47.062;15.446;2023-04-25T04:44:28;4.40;;;4.00;;
19278;SDS011;9773;47.062;15.446;2023-04-25T04:46:57;4.67;;;4.27;;
19278;SDS011;9773;47.062;15.446;2023-04-25T04:49:23;7.70;;;4.33;;
19278;SDS011;9773;47.062;15.446;2023-04-25T04:51:49;4.30;;;3.90;;
19278;SDS011;9773;47.062;15.446;2023-04-25T04:54:15;5.73;;;4.23;;
19278;SDS011;9773;47.062;15.446;2023-04-25T04:56:40;4.40;;;4.00;;
19278;SDS011;9773;47.062;15.446;2023-04-25T04:59:07;5.03;;;4.63;;
19278;SDS011;9773;47.062;15.446;2023-04-25T05:01:32;5.87;;;4.63;;
19278;SDS011;9773;47.062;15.446;2023-04-25T05:04:00;4.90;;;4.40;;
19278;SDS011;9773;47.062;15.446;2023-04-25T05:06:27;5.80;;;4.33;;
19278;SDS011;9773;47.062;15.446;2023-04-25T05:08:56;6.17;;;4.40;;
19278;SDS011;9773;47.062;15.446;2023-04-25T05:11:23;6.73;;;4.43;;
19278;SDS011;9773;47.062;15.446;2023-04-25T05:13:53;4.13;;;3.73;;
19278;SDS011;9773;47.062;15.446;2023-04-25T05:16:19;4.73;;;4.33;;
19278;SDS011;9773;47.062;15.446;2023-04-25T05:18:45;3.83;;;3.63;;
19278;SDS011;9773;47.062;15.446;2023-04-25T05:21:11;3.97;;;3.60;;
19278;SDS011;9773;47.062;15.446;2023-04-25T05:23:37;4.07;;;3.70;;
19278;SDS011;9773;47.062;15.446;2023-04-25T05:26:03;4.00;;;3.53;;
19278;SDS011;9773;47.062;15.446;2023-04-25T05:28:28;4.27;;;3.77;;
19278;SDS011;9773;47.062;15.446;2023-04-25T05:30:54;3.80;;;3.60;;
19278;SDS011;9773;47.062;15.446;2023-04-25T05:33:20;4.00;;;3.70;;
19278;SDS011;9773;47.062;15.446;2023-04-25T05:35:46;4.30;;;3.67;;
19278;SDS011;9773;47.062;15.446;2023-04-25T05:38:12;4.40;;;3.93;;
19278;SDS011;9773;47.062;15.446;2023-04-25T05:40:38;6.17;;;3.57;;
19278;SDS011;9773;47.062;15.446;2023-04-25T05:43:04;3.93;;;3.60;;
19278;SDS011;9773;47.062;15.446;2023-04-25T05:45:29;3.60;;;3.40;;
19278;SDS011;9773;47.062;15.446;2023-04-25T05:47:55;6.77;;;3.30;;
19278;SDS011;9773;47.062;15.446;2023-04-25T05:50:21;3.53;;;3.27;;
19278;SDS011;9773;47.062;15.446;2023-04-25T05:52:47;4.60;;;3.60;;
19278;SDS011;9773;47.062;15.446;2023-04-25T05:55:12;3.63;;;3.37;;
19278;SDS011;9773;47.062;15.446;2023-04-25T05:57:39;3.50;;;3.30;;
19278;SDS011;9773;47.062;15.446;2023-04-25T06:00:08;3.50;;;3.20;;
19278;SDS011;9773;47.062;15.446;2023-04-25T06:02:34;3.30;;;3.00;;
19278;SDS011;9773;47.062;15.446;2023-04-25T06:05:00;6.63;;;4.17;;
19278;SDS011;9773;47.062;15.446;2023-04-25T06:07:28;5.17;;;3.03;;
19278;SDS011;9773;47.062;15.446;2023-04-25T06:09:57;5.20;;;2.90;;
19278;SDS011;9773;47.062;15.446;2023-04-25T06:12:24;3.63;;;3.33;;
19278;SDS011;9773;47.062;15.446;2023-04-25T06:14:50;3.50;;;3.20;;
19278;SDS011;9773;47.062;15.446;2023-04-25T06:17:15;2.80;;;2.60;;
19278;SDS011;9773;47.062;15.446;2023-04-25T06:19:41;3.60;;;2.50;;
19278;SDS011;9773;47.062;15.446;2023-04-25T06:22:07;2.87;;;2.70;;
19278;SDS011;9773;47.062;15.446;2023-04-25T06:24:33;2.90;;;2.70;;
19278;SDS011;9773;47.062;15.446;2023-04-25T06:26:59;3.83;;;3.53;;
19278;SDS011;9773;47.062;15.446;2023-04-25T06:29:25;4.83;;;4.27;;
19278;SDS011;9773;47.062;15.446;2023-04-25T06:31:51;11.03;;;4.80;;
19278;SDS011;9773;47.062;15.446;2023-04-25T06:34:17;5.40;;;4.90;;
19278;SDS011;9773;47.062;15.446;2023-04-25T06:36:42;7.10;;;5.73;;
19278;SDS011;9773;47.062;15.446;2023-04-25T06:39:09;5.67;;;5.17;;
19278;SDS011;9773;47.062;15.446;2023-04-25T06:41:35;6.13;;;5.57;;
19278;SDS011;9773;47.062;15.446;2023-04-25T06:44:01;5.83;;;5.23;;
19278;SDS011;9773;47.062;15.446;2023-04-25T06:46:27;6.23;;;5.70;;
19278;SDS011;9773;47.062;15.446;2023-04-25T06:48:53;7.53;;;5.70;;
19278;SDS011;9773;47.062;15.446;2023-04-25T06:51:19;9.67;;;5.37;;
19278;SDS011;9773;47.062;15.446;2023-04-25T06:53:44;7.77;;;5.27;;
19278;SDS011;9773;47.062;15.446;2023-04-25T06:56:10;5.93;;;5.40;;
19278;SDS011;9773;47.062;15.446;2023-04-25T06:58:36;8.93;;;5.10;;
19278;SDS011;9773;47.062;15.446;2023-04-25T07:01:02;5.90;;;5.40;;
19278;SDS011;9773;47.062;15.446;2023-04-25T07:03:28;5.87;;;5.23;;
19278;SDS011;9773;47.062;15.446;2023-04-25T07:05:53;5.73;;;5.23;;
19278;SDS011;9773;47.062;15.446;2023-04-25T07:08:20;5.33;;;4.93;;
19278;SDS011;9773;47.062;15.446;2023-04-25T07:10:46;5.57;;;4.63;;
19278;SDS011;9773;47.062;15.446;2023-04-25T07:13:12;4.43;;;4.03;;
19278;SDS011;9773;47.062;15.446;2023-04-25T07:15:38;5.93;;;4.80;;
19278;SDS011;9773;47.062;15.446;2023-04-25T07:18:04;6.10;;;5.50;;
19278;SDS011;9773;47.062;15.446;2023-04-25T07:20:30;4.90;;;4.53;;
19278;SDS011;9773;47.062;15.446;2023-04-25T07:22:56;4.43;;;4.13;;
19278;SDS011;9773;47.062;15.446;2023-04-25T07:25:22;5.20;;;4.70;;
19278;SDS011;9773;47.062;15.446;2023-04-25T07:27:48;5.10;;;4.70;;
19278;SDS011;9773;47.062;15.446;2023-04-25T07:30:13;6.27;;;5.67;;
19278;SDS011;9773;47.062;15.446;2023-04-25T07:32:40;4.20;;;3.83;;
19278;SDS011;9773;47.062;15.446;2023-04-25T07:35:06;5.60;;;3.93;;
19278;SDS011;9773;47.062;15.446;2023-04-25T07:37:35;4.77;;;4.37;;
19278;SDS011;9773;47.062;15.446;2023-04-25T07:40:02;5.23;;;3.57;;
19278;SDS011;9773;47.062;15.446;2023-04-25T07:42:29;4.10;;;3.80;;
19278;SDS011;9773;47.062;15.446;2023-04-25T07:44:55;3.17;;;3.03;;
19278;SDS011;9773;47.062;15.446;2023-04-25T07:47:21;3.37;;;3.07;;
19278;SDS011;9773;47.062;15.446;2023-04-25T07:49:47;2.60;;;2.40;;
19278;SDS011;9773;47.062;15.446;2023-04-25T07:52:13;2.57;;;2.37;;
19278;SDS011;9773;47.062;15.446;2023-04-25T07:54:39;4.17;;;2.50;;
19278;SDS011;9773;47.062;15.446;2023-04-25T07:57:05;2.47;;;2.30;;
19278;SDS011;9773;47.062;15.446;2023-04-25T07:59:33;2.03;;;1.93;;
19278;SDS011;9773;47.062;15.446;2023-04-25T08:01:59;1.93;;;1.83;;
19278;SDS011;9773;47.062;15.446;2023-04-25T08:04:25;1.50;;;1.37;;
19278;SDS011;9773;47.062;15.446;2023-04-25T08:06:51;1.50;;;1.50;;
19278;SDS011;9773;47.062;15.446;2023-04-25T08:09:18;2.17;;;1.97;;
19278;SDS011;9773;47.062;15.446;2023-04-25T08:11:45;1.90;;;1.80;;
19278;SDS011;9773;47.062;15.446;2023-04-25T08:14:11;1.53;;;1.40;;
19278;SDS011;9773;47.062;15.446;2023-04-25T08:16:37;1.50;;;1.50;;
19278;SDS011;9773;47.062;15.446;2023-04-25T08:19:03;2.70;;;1.50;;
19278;SDS011;9773;47.062;15.446;2023-04-25T08:21:30;1.70;;;1.60;;
19278;SDS011;9773;47.062;15.446;2023-04-25T08:23:56;2.80;;;1.67;;
19278;SDS011;9773;47.062;15.446;2023-04-25T08:26:23;1.80;;;1.70;;
19278;SDS011;9773;47.062;15.446;2023-04-25T08:28:49;1.33;;;1.30;;
19278;SDS011;9773;47.062;15.446;2023-04-25T08:31:16;1.63;;;1.50;;
19278;SDS011;9773;47.062;15.446;2023-04-25T08:33:42;1.40;;;1.30;;
19278;SDS011;9773;47.062;15.446;2023-04-25T08:36:08;1.20;;;1.20;;
19278;SDS011;9773;47.062;15.446;2023-04-25T08:38:33;1.70;;;1.10;;
19278;SDS011;9773;47.062;15.446;2023-04-25T08:41:00;1.73;;;1.50;;
19278;SDS011;9773;47.062;15.446;2023-04-25T08:43:29;2.13;;;1.70;;
19278;SDS011;9773;47.062;15.446;2023-04-25T08:45:57;2.93;;;1.20;;
19278;SDS011;9773;47.062;15.446;2023-04-25T08:48:28;2.00;;;1.60;;
19278;SDS011;9773;47.062;15.446;2023-04-25T08:50:57;1.30;;;1.30;;
19278;SDS011;9773;47.062;15.446;2023-04-25T08:53:27;1.20;;;1.20;;
19278;SDS011;9773;47.062;15.446;2023-04-25T08:55:57;0.80;;;0.80;;
19278;SDS011;9773;47.062;15.446;2023-04-25T08:58:24;0.93;;;0.93;;
19278;SDS011;9773;47.062;15.446;2023-04-25T09:00:50;1.23;;;1.23;;
19278;SDS011;9773;47.062;15.446;2023-04-25T09:03:17;1.50;;;1.40;;
19278;SDS011;9773;47.062;15.446;2023-04-25T09:05:44;0.97;;;0.97;;
19278;SDS011;9773;47.062;15.446;2023-04-25T09:08:10;1.27;;;1.27;;
19278;SDS011;9773;47.062;15.446;2023-04-25T09:10:36;1.57;;;1.07;;
19278;SDS011;9773;47.062;15.446;2023-04-25T09:13:06;0.97;;;0.97;;
19278;SDS011;9773;47.062;15.446;2023-04-25T09:16:09;2.00;;;1.13;;
19278;SDS011;9773;47.062;15.446;2023-04-25T09:18:31;1.30;;;1.30;;
19278;SDS011;9773;47.062;15.446;2023-04-25T09:21:06;1.00;;;1.00;;
19278;SDS011;9773;47.062;15.446;2023-04-25T09:23:44;1.10;;;1.07;;
19278;SDS011;9773;47.062;15.446;2023-04-25T09:26:15;1.23;;;1.20;;
19278;SDS011;9773;47.062;15.446;2023-04-25T09:28:42;1.67;;;1.03;;
19278;SDS011;9773;47.062;15.446;2023-04-25T09:31:09;1.17;;;1.17;;
19278;SDS011;9773;47.062;15.446;2023-04-25T09:33:38;0.93;;;0.93;;
19278;SDS011;9773;47.062;15.446;2023-04-25T09:36:07;1.00;;;1.00;;
19278;SDS011;9773;47.062;15.446;2023-04-25T09:38:39;1.10;;;1.10;;
19278;SDS011;9773;47.062;15.446;2023-04-25T09:41:07;1.00;;;1.00;;
19278;SDS011;9773;47.062;15.446;2023-04-25T09:43:34;2.40;;;1.10;;
19278;SDS011;9773;47.062;15.446;2023-04-25T09:46:01;0.90;;;0.90;;
19278;SDS011;9773;47.062;15.446;2023-04-25T09:48:27;1.40;;;1.30;;
19278;SDS011;9773;47.062;15.446;2023-04-25T09:51:09;1.07;;;1.07;;
19278;SDS011;9773;47.062;15.446;2023-04-25T09:53:39;1.00;;;1.00;;
19278;SDS011;9773;47.062;15.446;2023-04-25T09:56:07;1.30;;;1.30;;
19278;SDS011;9773;47.062;15.446;2023-04-25T09:58:35;1.37;;;1.23;;
19278;SDS011;9773;47.062;15.446;2023-04-25T10:01:03;1.13;;;1.03;;
19278;SDS011;9773;47.062;15.446;2023-04-25T10:03:31;1.20;;;1.20;;
19278;SDS011;9773;47.062;15.446;2023-04-25T10:06:01;1.00;;;1.00;;
19278;SDS011;9773;47.062;15.446;2023-04-25T10:08:32;1.20;;;1.20;;
19278;SDS011;9773;47.062;15.446;2023-04-25T10:11:00;0.90;;;0.90;;
19278;SDS011;9773;47.062;15.446;2023-04-25T10:13:28;0.93;;;0.93;;
19278;SDS011;9773;47.062;15.446;2023-04-25T10:15:56;1.00;;;1.00;;
19278;SDS011;9773;47.062;15.446;2023-04-25T10:18:26;0.93;;;0.93;;
19278;SDS011;9773;47.062;15.446;2023-04-25T10:20:56;1.03;;;0.90;;
19278;SDS011;9773;47.062;15.446;2023-04-25T10:23:26;1.50;;;0.90;;
19278;SDS011;9773;47.062;15.446;2023-04-25T10:25:54;1.93;;;0.93;;
19278;SDS011;9773;47.062;15.446;2023-04-25T10:28:20;2.97;;;1.00;;
19278;SDS011;9773;47.062;15.446;2023-04-25T10:30:59;1.20;;;1.10;;
19278;SDS011;9773;47.062;15.446;2023-04-25T10:33:35;1.30;;;1.00;;
19278;SDS011;9773;47.062;15.446;2023-04-25T10:36:12;0.97;;;0.97;;
19278;SDS011;9773;47.062;15.446;2023-04-25T10:38:46;2.73;;;1.23;;
19278;SDS011;9773;47.062;15.446;2023-04-25T10:41:13;1.00;;;1.00;;
19278;SDS011;9773;47.062;15.446;2023-04-25T10:43:43;1.27;;;1.10;;
19278;SDS011;9773;47.062;15.446;2023-04-25T10:46:16;1.00;;;1.00;;
19278;SDS011;9773;47.062;15.446;2023-04-25T10:48:48;0.90;;;0.90;;
19278;SDS011;9773;47.062;15.446;2023-04-25T10:51:18;2.90;;;1.17;;
19278;SDS011;9773;47.062;15.446;2023-04-25T10:53:46;2.20;;;1.40;;
19278;SDS011;9773;47.062;15.446;2023-04-25T10:56:22;1.10;;;1.10;;
19278;SDS011;9773;47.062;15.446;2023-04-25T10:58:51;1.10;;;1.10;;
19278;SDS011;9773;47.062;15.446;2023-04-25T11:01:20;1.10;;;1.10;;
19278;SDS011;9773;47.062;15.446;2023-04-25T11:03:49;0.80;;;0.80;;
19278;SDS011;9773;47.062;15.446;2023-04-25T11:06:26;1.03;;;1.00;;
19278;SDS011;9773;47.062;15.446;2023-04-25T11:08:56;1.10;;;1.10;;
19278;SDS011;9773;47.062;15.446;2023-04-25T20:44:00;1.07;;;1.07;;
19278;SDS011;9773;47.062;15.446;2023-04-25T20:46:27;1.10;;;1.10;;
19278;SDS011;9773;47.062;15.446;2023-04-25T20:48:54;1.63;;;1.10;;
19278;SDS011;9773;47.062;15.446;2023-04-25T20:51:20;1.30;;;1.30;;
19278;SDS011;9773;47.062;15.446;2023-04-25T20:53:47;1.13;;;1.13;;
19278;SDS011;9773;47.062;15.446;2023-04-25T20:56:13;1.10;;;1.10;;
19278;SDS011;9773;47.062;15.446;2023-04-25T20:58:39;1.20;;;1.20;;
19278;SDS011;9773;47.062;15.446;2023-04-25T21:01:05;1.17;;;1.17;;
19278;SDS011;9773;47.062;15.446;2023-04-25T21:03:32;1.20;;;1.20;;
19278;SDS011;9773;47.062;15.446;2023-04-25T21:05:59;1.10;;;1.10;;
19278;SDS011;9773;47.062;15.446;2023-04-25T21:08:26;1.30;;;1.30;;
19278;SDS011;9773;47.062;15.446;2023-04-25T21:10:52;10.87;;;5.40;;
19278;SDS011;9773;47.062;15.446;2023-04-25T21:13:18;1.63;;;1.50;;
19278;SDS011;9773;47.062;15.446;2023-04-25T21:15:43;5.10;;;3.17;;
19278;SDS011;9773;47.062;15.446;2023-04-25T21:18:09;1.80;;;1.70;;
19278;SDS011;9773;47.062;15.446;2023-04-25T21:20:35;2.90;;;2.17;;
19278;SDS011;9773;47.062;15.446;2023-04-25T21:23:01;3.50;;;2.13;;
19278;SDS011;9773;47.062;15.446;2023-04-25T21:25:27;1.90;;;1.80;;
19278;SDS011;9773;47.062;15.446;2023-04-25T21:27:55;2.27;;;1.90;;
19278;SDS011;9773;47.062;15.446;2023-04-25T21:30:22;2.47;;;2.13;;
19278;SDS011;9773;47.062;15.446;2023-04-25T21:32:49;2.43;;;2.20;;
19278;SDS011;9773;47.062;15.446;2023-04-25T21:35:16;3.13;;;1.80;;
19278;SDS011;9773;47.062;15.446;2023-04-25T21:37:43;1.53;;;1.53;;
19278;SDS011;9773;47.062;15.446;2023-04-25T21:40:10;1.77;;;1.70;;
19278;SDS011;9773;47.062;15.446;2023-04-25T21:42:37;1.93;;;1.83;;
19278;SDS011;9773;47.062;15.446;2023-04-25T21:45:04;1.73;;;1.63;;
19278;SDS011;9773;47.062;15.446;2023-04-25T21:47:31;2.00;;;1.90;;
19278;SDS011;9773;47.062;15.446;2023-04-25T21:49:58;2.33;;;1.80;;
19278;SDS011;9773;47.062;15.446;2023-04-25T21:52:24;2.60;;;2.30;;
19278;SDS011;9773;47.062;15.446;2023-04-25T21:54:51;2.60;;;2.40;;
19278;SDS011;9773;47.062;15.446;2023-04-25T21:57:17;2.83;;;2.00;;
19278;SDS011;9773;47.062;15.446;2023-04-25T21:59:43;2.03;;;1.93;;
19278;SDS011;9773;47.062;15.446;2023-04-25T22:02:09;2.53;;;2.13;;
19278;SDS011;9773;47.062;15.446;2023-04-25T22:04:35;2.00;;;1.90;;
19278;SDS011;9773;47.062;15.446;2023-04-25T22:07:01;1.73;;;1.63;;
19278;SDS011;9773;47.062;15.446;2023-04-25T22:09:27;2.27;;;1.90;;
19278;SDS011;9773;47.062;15.446;2023-04-25T22:11:54;2.23;;;1.60;;
19278;SDS011;9773;47.062;15.446;2023-04-25T22:14:20;1.90;;;1.60;;
19278;SDS011;9773;47.062;15.446;2023-04-25T22:16:47;1.50;;;1.50;;
19278;SDS011;9773;47.062;15.446;2023-04-25T22:19:21;1.60;;;1.50;;
19278;SDS011;9773;47.062;15.446;2023-04-25T22:21:47;1.50;;;1.50;;
19278;SDS011;9773;47.062;15.446;2023-04-25T22:24:14;1.30;;;1.30;;
19278;SDS011;9773;47.062;15.446;2023-04-25T22:26:41;1.50;;;1.50;;
19278;SDS011;9773;47.062;15.446;2023-04-25T22:29:07;1.80;;;1.70;;
19278;SDS011;9773;47.062;15.446;2023-04-25T22:31:33;1.30;;;1.30;;
19278;SDS011;9773;47.062;15.446;2023-04-25T22:33:59;1.40;;;1.40;;
19278;SDS011;9773;47.062;15.446;2023-04-25T22:36:25;1.50;;;1.40;;
19278;SDS011;9773;47.062;15.446;2023-04-25T22:38:51;2.30;;;1.80;;
19278;SDS011;9773;47.062;15.446;2023-04-25T22:41:18;1.80;;;1.70;;
19278;SDS011;9773;47.062;15.446;2023-04-25T22:43:44;1.20;;;1.20;;
19278;SDS011;9773;47.062;15.446;2023-04-25T22:46:14;3.07;;;1.40;;
19278;SDS011;9773;47.062;15.446;2023-04-25T22:48:41;1.33;;;1.23;;
19278;SDS011;9773;47.062;15.446;2023-04-25T22:51:08;1.23;;;1.20;;
19278;SDS011;9773;47.062;15.446;2023-04-25T22:53:34;1.27;;;1.20;;
19278;SDS011;9773;47.062;15.446;2023-04-25T22:56:03;1.40;;;1.30;;
19278;SDS011;9773;47.062;15.446;2023-04-25T22:58:29;1.30;;;1.30;;
19278;SDS011;9773;47.062;15.446;2023-04-25T23:00:55;1.40;;;1.40;;
19278;SDS011;9773;47.062;15.446;2023-04-25T23:03:21;1.50;;;1.40;;
19278;SDS011;9773;47.062;15.446;2023-04-25T23:05:47;1.27;;;1.27;;
19278;SDS011;9773;47.062;15.446;2023-04-25T23:08:13;1.30;;;1.20;;
19278;SDS011;9773;47.062;15.446;2023-04-25T23:10:42;1.30;;;1.30;;
19278;SDS011;9773;47.062;15.446;2023-04-25T23:13:08;1.50;;;1.40;;
19278;SDS011;9773;47.062;15.446;2023-04-25T23:15:34;1.33;;;1.20;;
19278;SDS011;9773;47.062;15.446;2023-04-25T23:18:01;1.77;;;1.67;;
19278;SDS011;9773;47.062;15.446;2023-04-25T23:20:27;1.63;;;1.53;;
19278;SDS011;9773;47.062;15.446;2023-04-25T23:22:53;1.70;;;1.63;;
19278;SDS011;9773;47.062;15.446;2023-04-25T23:25:19;1.40;;;1.40;;
19278;SDS011;9773;47.062;15.446;2023-04-25T23:27:45;1.80;;;1.70;;
19278;SDS011;9773;47.062;15.446;2023-04-25T23:30:12;1.40;;;1.40;;
19278;SDS011;9773;47.062;15.446;2023-04-25T23:32:39;1.40;;;1.40;;
19278;SDS011;9773;47.062;15.446;2023-04-25T23:35:05;3.43;;;1.20;;
19278;SDS011;9773;47.062;15.446;2023-04-25T23:37:38;2.40;;;1.63;;
19278;SDS011;9773;47.062;15.446;2023-04-25T23:40:07;1.60;;;1.50;;
19278;SDS011;9773;47.062;15.446;2023-04-25T23:42:36;1.30;;;1.30;;
19278;SDS011;9773;47.062;15.446;2023-04-25T23:45:03;1.60;;;1.50;;
19278;SDS011;9773;47.062;15.446;2023-04-25T23:47:30;1.30;;;1.30;;
19278;SDS011;9773;47.062;15.446;2023-04-25T23:49:56;1.67;;;1.57;;
19278;SDS011;9773;47.062;15.446;2023-04-25T23:52:22;1.43;;;1.43;;
19278;SDS011;9773;47.062;15.446;2023-04-25T23:54:48;2.57;;;1.60;;
19278;SDS011;9773;47.062;15.446;2023-04-25T23:57:14;1.40;;;1.37;;
19278;SDS011;9773;47.062;15.446;2023-04-25T23:59:44;1.30;;;1.30;;
